createdAt,value
2022-09-04T00:02:07.186Z,101939.97
2022-09-04T00:04:44.527Z,101934.34
2022-09-04T00:07:14.294Z,101944.16
2022-09-04T00:10:09.806Z,101943.00
2022-09-04T00:12:59.574Z,101938.34
2022-09-04T00:15:35.605Z,101943.94
2022-09-04T00:18:02.547Z,101939.88
2022-09-04T00:20:34.251Z,101939.59
2022-09-04T00:23:04.405Z,101937.53
2022-09-04T00:25:50.806Z,101934.84
2022-09-04T00:28:25.575Z,101935.50
2022-09-04T00:30:58.443Z,101945.91
2022-09-04T00:33:54.663Z,101941.75
2022-09-04T00:36:22.763Z,101934.06
2022-09-04T00:38:54.198Z,101943.47
2022-09-04T00:41:39.361Z,101937.28
2022-09-04T00:44:24.714Z,101939.97
2022-09-04T00:47:20.308Z,101936.00
2022-09-04T00:49:53.127Z,101937.94
2022-09-04T00:52:38.203Z,101948.31
2022-09-04T00:55:05.294Z,101945.06
2022-09-04T00:57:32.139Z,101944.56
2022-09-04T01:00:09.022Z,101942.84
2022-09-04T01:02:36.230Z,101946.47
2022-09-04T01:05:19.843Z,101940.84
2022-09-04T01:07:56.752Z,101942.28
2022-09-04T01:10:56.479Z,101950.47
2022-09-04T01:13:42.351Z,101962.66
2022-09-04T01:16:31.562Z,101948.81
2022-09-04T01:18:58.632Z,101952.28
2022-09-04T01:21:57.856Z,101955.25
2022-09-04T01:24:25.023Z,101948.53
2022-09-04T01:27:10.273Z,101958.06
2022-09-04T01:29:58.161Z,101959.44
2022-09-04T01:32:43.797Z,101959.78
2022-09-04T01:35:29.463Z,101963.97
2022-09-04T01:38:03.198Z,101959.88
2022-09-04T01:40:35.502Z,101967.13
2022-09-04T01:43:06.082Z,101963.94
2022-09-04T01:45:53.121Z,101969.91
2022-09-04T01:48:23.317Z,101975.13
2022-09-04T01:50:56.605Z,101979.78
2022-09-04T01:53:28.182Z,101972.53
2022-09-04T01:56:21.414Z,101978.44
2022-09-04T01:58:54.983Z,101972.38
2022-09-04T02:01:42.451Z,101983.72
2022-09-04T02:04:12.810Z,101977.41
2022-09-04T02:06:50.567Z,101986.69
2022-09-04T02:09:29.648Z,101979.00
2022-09-04T02:12:03.230Z,101972.13
2022-09-04T02:14:42.997Z,101975.34
2022-09-04T02:17:12.361Z,101972.03
2022-09-04T02:19:42.181Z,101979.97
2022-09-04T02:22:09.022Z,101978.50
2022-09-04T02:24:36.075Z,101974.22
2022-09-04T02:27:08.806Z,101976.97
2022-09-04T02:29:48.880Z,101973.72
2022-09-04T02:32:18.806Z,101970.28
2022-09-04T02:34:48.528Z,101971.91
2022-09-04T02:37:20.662Z,101975.16
2022-09-04T02:39:56.689Z,101971.88
2022-09-04T02:42:32.415Z,101981.03
2022-09-04T02:45:30.347Z,101984.41
2022-09-04T02:48:13.939Z,101985.09
2022-09-04T02:51:01.211Z,101988.06
2022-09-04T02:53:46.637Z,101986.41
2022-09-04T02:56:16.713Z,101989.28
2022-09-04T02:58:44.318Z,101988.97
2022-09-04T03:01:22.652Z,101991.78
2022-09-04T03:04:16.085Z,101991.94
2022-09-04T03:06:55.531Z,101987.50
2022-09-04T03:09:29.274Z,101979.91
2022-09-04T03:12:00.693Z,101976.19
2022-09-04T03:14:36.181Z,101980.06
2022-09-04T03:17:03.099Z,101977.50
2022-09-04T03:19:48.939Z,101974.31
2022-09-04T03:22:19.210Z,101979.97
2022-09-04T03:24:46.182Z,101970.81
2022-09-04T03:27:14.882Z,101970.66
2022-09-04T03:29:51.354Z,101974.00
2022-09-04T03:32:18.429Z,101966.91
2022-09-04T03:34:48.494Z,101971.69
2022-09-04T03:37:15.359Z,101986.47
2022-09-04T03:39:42.758Z,101985.00
2022-09-04T03:42:09.691Z,101983.47
2022-09-04T03:44:36.545Z,101986.84
2022-09-04T03:47:27.075Z,101986.94
2022-09-04T03:50:12.360Z,101994.16
2022-09-04T03:52:39.503Z,101991.06
2022-09-04T03:55:33.693Z,101994.69
2022-09-04T03:58:19.198Z,102000.19
2022-09-04T04:01:13.625Z,101999.94
2022-09-04T04:03:59.546Z,102010.50
2022-09-04T04:06:26.423Z,102005.53
2022-09-04T04:08:59.370Z,102006.31
2022-09-04T04:11:43.685Z,102008.38
2022-09-04T04:14:30.973Z,102016.44
2022-09-04T04:17:20.300Z,102005.38
2022-09-04T04:20:04.704Z,102014.63
2022-09-04T04:22:45.233Z,102022.53
2022-09-04T04:25:27.448Z,102018.41
2022-09-04T04:27:58.228Z,102016.47
2022-09-04T04:30:26.409Z,102022.75
2022-09-04T04:32:56.757Z,102019.56
2022-09-04T04:35:35.967Z,102026.31
2022-09-04T04:38:06.136Z,102028.03
2022-09-04T04:40:42.215Z,102033.22
2022-09-04T04:43:29.527Z,102029.72
2022-09-04T04:46:15.434Z,102034.91
2022-09-04T04:49:01.310Z,102033.09
2022-09-04T04:51:40.853Z,102039.94
2022-09-04T04:54:20.455Z,102039.97
2022-09-04T04:56:54.136Z,102050.25
2022-09-04T04:59:24.623Z,102046.72
2022-09-04T05:01:57.932Z,102053.78
2022-09-04T05:04:30.358Z,102056.22
2022-09-04T05:07:06.782Z,102066.59
2022-09-04T05:09:40.354Z,102068.94
2022-09-04T05:12:33.662Z,102067.94
2022-09-04T05:15:10.267Z,102067.03
2022-09-04T05:17:55.717Z,102078.78
2022-09-04T05:20:50.526Z,102073.81
2022-09-04T05:23:24.939Z,102072.00
2022-09-04T05:26:08.101Z,102075.19
2022-09-04T05:28:50.260Z,102075.81
2022-09-04T05:31:25.312Z,102090.66
2022-09-04T05:34:04.452Z,102090.72
2022-09-04T05:36:37.731Z,102086.91
2022-09-04T05:39:10.545Z,102090.19
2022-09-04T05:41:43.526Z,102088.91
2022-09-04T05:44:10.363Z,102088.13
2022-09-04T05:46:55.965Z,102103.19
2022-09-04T05:49:31.936Z,102105.72
2022-09-04T05:52:17.570Z,102109.72
2022-09-04T05:55:04.902Z,102113.19
2022-09-04T05:57:41.226Z,102117.88
2022-09-04T06:00:08.395Z,102123.75
2022-09-04T06:03:05.250Z,102122.44
2022-09-04T06:05:39.987Z,102129.34
2022-09-04T06:08:32.814Z,102121.25
2022-09-04T06:11:38.519Z,102126.34
2022-09-04T06:14:24.099Z,102133.97
2022-09-04T06:16:54.245Z,102135.50
2022-09-04T06:19:36.126Z,102140.88
2022-09-04T06:22:26.347Z,102137.84
2022-09-04T06:25:09.270Z,102141.44
2022-09-04T06:27:56.481Z,102145.75
2022-09-04T06:30:26.433Z,102142.00
2022-09-04T06:33:19.965Z,102149.00
2022-09-04T06:35:47.331Z,102142.31
2022-09-04T06:38:14.708Z,102158.25
2022-09-04T06:41:00.474Z,102154.56
2022-09-04T06:43:36.562Z,102151.44
2022-09-04T06:46:11.279Z,102150.75
2022-09-04T06:49:02.034Z,102151.03
2022-09-04T06:51:37.954Z,102157.06
2022-09-04T06:54:15.723Z,102154.66
2022-09-04T06:57:01.585Z,102148.50
2022-09-04T06:59:47.445Z,102154.94
2022-09-04T07:02:28.978Z,102150.66
2022-09-04T07:04:59.218Z,102156.06
2022-09-04T07:07:32.893Z,102164.66
2022-09-04T07:10:05.140Z,102160.88
2022-09-04T07:12:43.321Z,102168.88
2022-09-04T07:15:18.134Z,102160.94
2022-09-04T07:18:06.924Z,102169.31
2022-09-04T07:20:52.798Z,102159.38
2022-09-04T07:23:36.730Z,102156.63
2022-09-04T07:26:06.562Z,102159.78
2022-09-04T07:28:33.522Z,102157.66
2022-09-04T07:31:18.326Z,102161.66
2022-09-04T07:33:46.017Z,102160.38
2022-09-04T07:36:36.020Z,102158.22
2022-09-04T07:39:21.861Z,102162.00
2022-09-04T07:41:56.776Z,102157.72
2022-09-04T07:44:24.394Z,102156.38
2022-09-04T07:47:13.551Z,102154.56
2022-09-04T07:49:43.847Z,102152.00
2022-09-04T07:52:23.022Z,102158.94
2022-09-04T07:55:05.183Z,102154.81
2022-09-04T07:57:38.224Z,102148.66
2022-09-04T08:00:13.951Z,102159.81
2022-09-04T08:02:43.566Z,102159.47
2022-09-04T08:05:11.519Z,102160.00
2022-09-04T08:07:38.779Z,102162.66
2022-09-04T08:10:11.523Z,102161.59
2022-09-04T08:12:42.306Z,102179.28
2022-09-04T08:15:10.562Z,102184.28
2022-09-04T08:17:43.246Z,102188.97
2022-09-04T08:20:29.235Z,102192.66
2022-09-04T08:23:02.268Z,102194.41
2022-09-04T08:25:33.093Z,102188.56
2022-09-04T08:28:35.594Z,102200.72
2022-09-04T08:31:09.380Z,102191.94
2022-09-04T08:33:53.303Z,102180.94
2022-09-04T08:36:25.830Z,102177.56
2022-09-04T08:38:58.439Z,102170.69
2022-09-04T08:41:34.956Z,102174.22
2022-09-04T08:44:20.683Z,102177.91
2022-09-04T08:46:59.613Z,102182.78
2022-09-04T08:49:35.545Z,102180.81
2022-09-04T08:52:08.430Z,102176.63
2022-09-04T08:54:35.796Z,102166.88
2022-09-04T08:57:17.892Z,102170.72
2022-09-04T09:00:00.073Z,102172.28
2022-09-04T09:02:27.002Z,102178.72
2022-09-04T09:05:13.061Z,102182.41
2022-09-04T09:08:06.798Z,102184.25
2022-09-04T09:10:33.874Z,102184.66
2022-09-04T09:13:20.952Z,102195.34
2022-09-04T09:15:48.030Z,102184.59
2022-09-04T09:18:18.145Z,102178.78
2022-09-04T09:21:01.388Z,102180.03
2022-09-04T09:23:28.875Z,102190.03
2022-09-04T09:26:06.817Z,102173.56
2022-09-04T09:28:52.706Z,102185.22
2022-09-04T09:31:38.463Z,102181.41
2022-09-04T09:34:24.270Z,102174.41
2022-09-04T09:37:01.902Z,102173.28
2022-09-04T09:39:29.268Z,102168.94
2022-09-04T09:41:59.924Z,102169.09
2022-09-04T09:44:45.747Z,102168.59
2022-09-04T09:47:28.313Z,102163.41
2022-09-04T09:49:59.325Z,102170.44
2022-09-04T09:52:28.715Z,102155.81
2022-09-04T09:55:14.256Z,102153.44
2022-09-04T09:57:41.413Z,102153.97
2022-09-04T10:00:10.949Z,102155.75
2022-09-04T10:02:43.835Z,102165.38
2022-09-04T10:05:13.754Z,102151.06
2022-09-04T10:07:44.309Z,102150.31
2022-09-04T10:10:36.279Z,102147.22
2022-09-04T10:13:06.247Z,102158.06
2022-09-04T10:15:39.251Z,102151.72
2022-09-04T10:18:26.856Z,102146.78
2022-09-04T10:21:00.348Z,102145.00
2022-09-04T10:23:30.538Z,102144.06
2022-09-04T10:26:15.673Z,102151.22
2022-09-04T10:29:01.607Z,102145.38
2022-09-04T10:31:34.729Z,102154.16
2022-09-04T10:34:10.814Z,102149.88
2022-09-04T10:36:46.638Z,102146.41
2022-09-04T10:39:55.550Z,102138.66
2022-09-04T10:42:31.881Z,102143.69
2022-09-04T10:45:07.942Z,102150.59
2022-09-04T10:47:47.545Z,102148.81
2022-09-04T10:50:33.285Z,102145.09
2022-09-04T10:53:31.839Z,102153.59
2022-09-04T10:56:09.348Z,102145.66
2022-09-04T10:58:39.714Z,102147.25
2022-09-04T11:01:19.079Z,102154.22
2022-09-04T11:03:58.139Z,102150.19
2022-09-04T11:06:34.260Z,102152.28
2022-09-04T11:09:19.869Z,102150.38
2022-09-04T11:11:53.005Z,102144.19
2022-09-04T11:14:42.710Z,102163.84
2022-09-04T11:17:30.590Z,102157.22
2022-09-04T11:20:24.653Z,102156.34
2022-09-04T11:23:10.413Z,102152.00
2022-09-04T11:25:57.121Z,102144.63
2022-09-04T11:28:44.466Z,102155.03
2022-09-04T11:31:17.511Z,102162.81
2022-09-04T11:34:03.245Z,102155.75
2022-09-04T11:36:35.497Z,102151.28
2022-09-04T11:39:21.373Z,102152.94
2022-09-04T11:42:08.505Z,102140.53
2022-09-04T11:44:41.179Z,102136.88
2022-09-04T11:47:23.531Z,102138.22
2022-09-04T11:49:50.419Z,102149.50
2022-09-04T11:52:41.946Z,102138.84
2022-09-04T11:55:24.918Z,102139.31
2022-09-04T11:58:03.533Z,102127.72
2022-09-04T12:00:43.086Z,102134.84
2022-09-04T12:03:29.848Z,102128.09
2022-09-04T12:06:35.260Z,102137.81
2022-09-04T12:09:02.583Z,102137.69
2022-09-04T12:11:47.959Z,102125.25
2022-09-04T12:14:30.287Z,102121.44
2022-09-04T12:17:16.181Z,102134.88
2022-09-04T12:20:06.148Z,102128.09
2022-09-04T12:22:43.547Z,102123.75
2022-09-04T12:25:10.544Z,102123.66
2022-09-04T12:27:52.709Z,102127.53
2022-09-04T12:30:21.614Z,102115.31
2022-09-04T12:32:51.465Z,102114.25
2022-09-04T12:35:21.282Z,102128.19
2022-09-04T12:37:48.534Z,102124.69
2022-09-04T12:40:28.527Z,102125.38
2022-09-04T12:43:05.201Z,102125.19
2022-09-04T12:45:41.258Z,102128.25
2022-09-04T12:48:21.904Z,102134.16
2022-09-04T12:51:05.729Z,102124.97
2022-09-04T12:53:44.562Z,102124.19
2022-09-04T12:56:26.542Z,102128.28
2022-09-04T12:58:59.971Z,102119.75
2022-09-04T13:01:38.210Z,102121.13
2022-09-04T13:04:08.504Z,102139.97
2022-09-04T13:06:35.383Z,102133.03
2022-09-04T13:09:02.246Z,102129.03
2022-09-04T13:11:35.395Z,102135.94
2022-09-04T13:14:14.599Z,102127.72
2022-09-04T13:16:57.628Z,102126.66
2022-09-04T13:19:46.871Z,102127.97
2022-09-04T13:22:32.573Z,102135.19
2022-09-04T13:25:08.760Z,102139.28
2022-09-04T13:28:03.311Z,102138.28
2022-09-04T13:30:31.118Z,102133.41
2022-09-04T13:33:00.918Z,102137.63
2022-09-04T13:35:41.421Z,102146.97
2022-09-04T13:38:18.947Z,102144.06
2022-09-04T13:41:00.428Z,102143.69
2022-09-04T13:43:27.567Z,102137.09
2022-09-04T13:45:55.709Z,102138.41
2022-09-04T13:48:32.940Z,102148.00
2022-09-04T13:51:04.229Z,102150.22
2022-09-04T13:53:59.177Z,102145.78
2022-09-04T13:56:42.352Z,102146.19
2022-09-04T13:59:15.038Z,102145.63
2022-09-04T14:01:49.540Z,102145.69
2022-09-04T14:04:26.667Z,102144.84
2022-09-04T14:07:02.582Z,102143.97
2022-09-04T14:09:34.338Z,102149.38
2022-09-04T14:12:20.176Z,102155.81
2022-09-04T14:14:55.902Z,102160.88
2022-09-04T14:17:28.115Z,102155.81
2022-09-04T14:20:06.631Z,102155.53
2022-09-04T14:22:33.831Z,102154.75
2022-09-04T14:25:01.178Z,102153.28
2022-09-04T14:27:44.334Z,102152.84
2022-09-04T14:30:17.683Z,102146.66
2022-09-04T14:33:07.777Z,102146.25
2022-09-04T14:35:42.565Z,102140.06
2022-09-04T14:38:24.808Z,102139.84
2022-09-04T14:40:56.743Z,102145.78
2022-09-04T14:43:32.748Z,102143.84
2022-09-04T14:46:06.964Z,102143.16
2022-09-04T14:48:40.588Z,102150.47
2022-09-04T14:51:13.342Z,102154.72
2022-09-04T14:53:45.970Z,102162.91
2022-09-04T14:56:13.234Z,102161.63
2022-09-04T14:58:50.486Z,102174.41
2022-09-04T15:01:19.029Z,102169.06
2022-09-04T15:03:56.612Z,102163.16
2022-09-04T15:06:31.952Z,102166.81
2022-09-04T15:09:19.298Z,102158.88
2022-09-04T15:11:48.744Z,102166.06
2022-09-04T15:14:28.535Z,102169.47
2022-09-04T15:17:00.208Z,102161.91
2022-09-04T15:19:46.835Z,102169.09
2022-09-04T15:22:32.627Z,102176.00
2022-09-04T15:25:17.896Z,102168.13
2022-09-04T15:27:47.844Z,102165.13
2022-09-04T15:30:19.900Z,102161.09
2022-09-04T15:32:48.342Z,102159.81
2022-09-04T15:35:23.668Z,102156.34
2022-09-04T15:37:52.697Z,102161.53
2022-09-04T15:40:22.365Z,102160.38
2022-09-04T15:42:58.916Z,102162.50
2022-09-04T15:45:31.950Z,102158.00
2022-09-04T15:47:58.888Z,102151.41
2022-09-04T15:50:27.887Z,102154.66
2022-09-04T15:53:12.163Z,102153.53
2022-09-04T15:55:41.335Z,102158.00
2022-09-04T15:58:08.686Z,102153.63
2022-09-04T16:00:38.283Z,102165.88
2022-09-04T16:03:16.888Z,102174.13
2022-09-04T16:06:02.916Z,102171.53
2022-09-04T16:08:37.834Z,102171.19
2022-09-04T16:11:05.050Z,102173.28
2022-09-04T16:13:42.994Z,102163.69
2022-09-04T16:16:14.112Z,102171.31
2022-09-04T16:18:48.188Z,102163.44
2022-09-04T16:21:23.125Z,102176.78
2022-09-04T16:23:51.006Z,102177.47
2022-09-04T16:26:19.672Z,102184.34
2022-09-04T16:28:53.373Z,102187.19
2022-09-04T16:31:35.066Z,102188.44
2022-09-04T16:34:06.652Z,102187.91
2022-09-04T16:36:40.247Z,102190.44
2022-09-04T16:39:14.997Z,102196.03
2022-09-04T16:41:42.947Z,102204.16
2022-09-04T16:44:25.624Z,102196.78
2022-09-04T16:47:04.904Z,102205.72
2022-09-04T16:49:42.046Z,102200.75
2022-09-04T16:52:27.183Z,102207.16
2022-09-04T16:54:55.896Z,102210.38
2022-09-04T16:57:28.996Z,102204.09
2022-09-04T17:00:24.771Z,102208.72
2022-09-04T17:02:59.496Z,102208.84
2022-09-04T17:05:36.401Z,102208.34
2022-09-04T17:08:22.762Z,102203.06
2022-09-04T17:10:58.516Z,102207.53
2022-09-04T17:13:39.121Z,102214.84
2022-09-04T17:16:20.636Z,102214.13
2022-09-04T17:18:54.049Z,102218.59
2022-09-04T17:28:24.850Z,102219.22
2022-09-04T17:29:08.630Z,102215.69
2022-09-04T17:29:18.567Z,102223.94
2022-09-04T17:30:52.775Z,102229.31
2022-09-04T17:40:36.203Z,102234.63
2022-09-04T17:40:38.040Z,102244.47
2022-09-04T17:40:39.217Z,102240.81
2022-09-04T17:42:24.760Z,102248.44
2022-09-04T17:44:54.331Z,102251.00
2022-09-04T17:47:33.177Z,102250.84
2022-09-04T17:50:02.585Z,102250.69
2022-09-04T17:52:34.142Z,102256.94
2022-09-04T17:55:12.840Z,102257.19
2022-09-04T17:57:42.716Z,102267.44
2022-09-04T18:00:20.628Z,102266.25
2022-09-04T18:03:06.564Z,102274.38
2022-09-04T18:05:42.572Z,102271.78
2022-09-04T18:08:30.350Z,102277.34
2022-09-04T18:11:01.163Z,102272.59
2022-09-04T18:13:38.811Z,102282.00
2022-09-04T18:16:16.982Z,102284.84
2022-09-04T18:18:52.508Z,102293.34
2022-09-04T18:21:42.106Z,102304.44
2022-09-04T18:24:13.578Z,102311.19
2022-09-04T18:26:48.474Z,102302.56
2022-09-04T18:30:57.264Z,102308.25
2022-09-04T18:37:06.969Z,102310.59
2022-09-04T18:37:23.208Z,102316.56
2022-09-04T18:37:56.246Z,102321.78
2022-09-04T18:40:39.489Z,102319.00
2022-09-04T18:50:25.044Z,102318.59
2022-09-04T18:50:35.600Z,102321.72
2022-09-04T18:50:36.801Z,102323.09
2022-09-04T18:52:22.606Z,102331.28
2022-09-04T18:54:57.589Z,102331.41
2022-09-04T18:57:30.742Z,102331.84
2022-09-04T19:00:13.032Z,102343.75
2022-09-04T19:03:03.298Z,102335.75
2022-09-04T19:05:44.943Z,102339.59
2022-09-04T19:08:29.734Z,102342.66
2022-09-04T19:11:01.882Z,102347.22
2022-09-04T19:13:53.563Z,102348.59
2022-09-04T19:16:38.509Z,102352.19
2022-09-04T19:19:17.591Z,102349.28
2022-09-04T19:21:58.414Z,102353.41
2022-09-04T19:24:34.759Z,102360.66
2022-09-04T19:27:26.659Z,102353.31
2022-09-04T19:30:18.881Z,102365.50
2022-09-04T19:32:58.103Z,102360.16
2022-09-04T19:35:37.714Z,102361.81
2022-09-04T19:45:47.553Z,102365.69
2022-09-04T19:46:00.355Z,102369.09
2022-09-04T19:46:07.205Z,102361.31
2022-09-04T19:47:28.935Z,102365.50
2022-09-04T19:53:10.091Z,102363.13
2022-09-04T19:53:30.585Z,102371.69
2022-09-04T19:55:48.464Z,102369.19
2022-09-04T19:58:29.592Z,102362.56
2022-09-04T20:01:02.386Z,102366.00
2022-09-04T20:03:36.550Z,102369.06
2022-09-04T20:06:21.894Z,102368.44
2022-09-04T20:08:58.560Z,102363.41
2022-09-04T20:11:35.550Z,102368.34
2022-09-04T20:14:24.470Z,102376.69
2022-09-04T20:16:55.670Z,102372.06
2022-09-04T20:19:37.523Z,102366.94
2022-09-04T20:22:16.083Z,102369.88
2022-09-04T20:24:58.440Z,102371.19
2022-09-04T20:27:35.216Z,102369.97
2022-09-04T20:30:07.653Z,102375.94
2022-09-04T20:32:38.437Z,102375.72
2022-09-04T20:35:14.052Z,102377.22
2022-09-04T20:37:44.655Z,102376.81
2022-09-04T20:40:36.208Z,102381.94
2022-09-04T20:43:03.120Z,102378.63
2022-09-04T20:48:32.485Z,102378.22
2022-09-04T20:52:58.419Z,102386.78
2022-09-04T20:53:05.513Z,102383.88
2022-09-04T20:54:23.334Z,102392.41
2022-09-04T21:00:14.718Z,102394.22
2022-09-04T21:03:08.666Z,102394.63
2022-09-04T21:03:28.783Z,102403.44
2022-09-04T21:06:10.978Z,102400.97
2022-09-04T21:08:38.021Z,102408.50
2022-09-04T21:11:38.906Z,102414.31
2022-09-04T21:14:00.792Z,102415.34
2022-09-04T21:16:27.689Z,102414.94
2022-09-04T21:19:27.747Z,102422.38
2022-09-04T21:21:57.105Z,102417.06
2022-09-04T21:24:39.328Z,102426.91
2022-09-04T21:27:06.593Z,102426.91
2022-09-04T21:29:50.039Z,102425.28
2022-09-04T21:32:33.633Z,102429.47
2022-09-04T21:35:20.811Z,102435.13
2022-09-04T21:37:48.058Z,102432.22
2022-09-04T21:40:51.697Z,102429.72
2022-09-04T21:43:19.660Z,102430.50
2022-09-04T21:46:07.724Z,102433.94
2022-09-04T21:48:52.376Z,102441.63
2022-09-04T21:51:38.343Z,102440.25
2022-09-04T21:54:13.090Z,102442.72
2022-09-04T22:02:30.593Z,102446.47
2022-09-04T22:02:46.082Z,102453.06
2022-09-04T22:03:02.146Z,102454.06
2022-09-04T22:05:29.965Z,102453.84
2022-09-04T22:12:36.860Z,102455.44
2022-09-04T22:13:39.303Z,102454.19
2022-09-04T22:14:09.950Z,102458.78
2022-09-04T22:16:46.064Z,102456.16
2022-09-04T22:19:17.021Z,102453.50
2022-09-04T22:22:03.820Z,102445.47
2022-09-04T22:24:31.229Z,102453.72
2022-09-04T22:27:18.267Z,102463.41
2022-09-04T22:29:51.303Z,102456.81
2022-09-04T22:32:21.457Z,102454.66
2022-09-04T22:35:07.831Z,102458.34
2022-09-04T22:37:35.340Z,102463.22
2022-09-04T22:40:23.638Z,102462.97
2022-09-04T22:42:56.043Z,102463.22
2022-09-04T22:45:26.066Z,102463.06
2022-09-04T22:48:10.115Z,102465.59
2022-09-04T22:50:56.126Z,102463.69
2022-09-04T22:53:42.898Z,102469.78
2022-09-04T22:56:24.224Z,102478.84
2022-09-04T22:58:55.598Z,102479.41
2022-09-04T23:02:02.996Z,102482.22
2022-09-04T23:04:50.340Z,102484.78
2022-09-04T23:13:04.739Z,102477.34
2022-09-04T23:13:48.166Z,102482.41
2022-09-04T23:13:56.228Z,102487.34
2022-09-04T23:16:28.307Z,102484.47
2022-09-04T23:21:59.766Z,102490.50
2022-09-04T23:26:43.387Z,102491.56
2022-09-04T23:26:49.609Z,102492.91
2022-09-04T23:28:27.076Z,102490.06
2022-09-04T23:31:10.871Z,102490.06
2022-09-04T23:33:56.488Z,102499.16
2022-09-04T23:37:00.623Z,102491.13
2022-09-04T23:40:06.768Z,102488.56
2022-09-04T23:43:07.802Z,102497.84
2022-09-04T23:46:11.741Z,102489.13
2022-09-04T23:49:13.919Z,102489.03
2022-09-04T23:52:12.160Z,102490.44
2022-09-04T23:55:20.742Z,102495.41
2022-09-04T23:58:33.732Z,102495.41
